createdAt,value
2018-11-26T00:00:07.962Z,5.92
2018-11-26T00:02:36.091Z,5.89
2018-11-26T00:05:04.285Z,5.88
2018-11-26T00:07:33.374Z,5.88
2018-11-26T00:10:12.938Z,5.89
2018-11-26T00:12:41.088Z,6.01
2018-11-26T00:15:09.331Z,5.97
2018-11-26T00:17:37.457Z,5.93
2018-11-26T00:20:06.520Z,5.91
2018-11-26T00:22:34.706Z,5.90
2018-11-26T00:25:02.889Z,5.89
2018-11-26T00:27:31.103Z,5.88
2018-11-26T00:29:59.319Z,5.86
2018-11-26T00:32:27.458Z,5.83
2018-11-26T00:34:55.668Z,5.75
2018-11-26T00:37:23.800Z,5.76
2018-11-26T00:39:52.026Z,5.78
2018-11-26T00:42:20.183Z,5.75
2018-11-26T00:44:48.310Z,5.86
2018-11-26T00:47:16.450Z,5.82
2018-11-26T00:49:44.607Z,5.77
2018-11-26T00:52:12.773Z,5.76
2018-11-26T00:54:40.957Z,5.76
2018-11-26T00:57:09.096Z,5.84
2018-11-26T00:59:37.327Z,5.80
2018-11-26T01:02:05.742Z,5.74
2018-11-26T01:04:33.867Z,5.71
2018-11-26T01:07:02.004Z,5.72
2018-11-26T01:09:30.141Z,5.70
2018-11-26T01:11:58.283Z,5.65
2018-11-26T01:14:26.495Z,5.69
2018-11-26T01:16:54.622Z,5.68
2018-11-26T01:19:22.793Z,5.71
2018-11-26T01:21:51.868Z,5.69
2018-11-26T01:24:20.004Z,5.69
2018-11-26T01:26:48.154Z,5.67
2018-11-26T01:29:16.302Z,5.68
2018-11-26T01:31:44.478Z,5.70
2018-11-26T01:34:12.622Z,5.70
2018-11-26T01:36:40.805Z,5.71
2018-11-26T01:39:09.355Z,5.73
2018-11-26T01:41:37.626Z,5.75
2018-11-26T01:44:05.763Z,5.74
2018-11-26T01:46:33.924Z,5.76
2018-11-26T01:49:02.100Z,5.75
2018-11-26T01:51:30.231Z,5.80
2018-11-26T01:53:58.376Z,5.79
2018-11-26T01:56:26.516Z,5.76
2018-11-26T01:58:54.794Z,5.80
2018-11-26T02:01:22.977Z,5.78
2018-11-26T02:03:51.177Z,5.75
2018-11-26T02:06:19.308Z,5.75
2018-11-26T02:08:47.423Z,5.78
2018-11-26T02:11:15.561Z,5.79
2018-11-26T02:13:43.688Z,5.80
2018-11-26T02:16:11.901Z,5.81
2018-11-26T02:18:40.117Z,5.84
2018-11-26T02:21:08.247Z,5.81
2018-11-26T02:23:36.422Z,5.84
2018-11-26T02:26:04.701Z,5.85
2018-11-26T02:28:33.694Z,5.81
2018-11-26T02:31:01.827Z,5.83
2018-11-26T02:33:29.977Z,5.88
2018-11-26T02:35:58.103Z,5.88
2018-11-26T02:38:26.278Z,5.87
2018-11-26T02:40:54.459Z,5.93
2018-11-26T02:43:22.594Z,5.89
2018-11-26T02:45:50.791Z,5.92
2018-11-26T02:48:18.928Z,5.90
2018-11-26T02:50:47.155Z,5.88
2018-11-26T02:53:15.794Z,5.91
2018-11-26T02:55:44.008Z,5.86
2018-11-26T02:58:12.172Z,5.91
2018-11-26T03:00:40.454Z,5.86
2018-11-26T03:03:08.593Z,5.90
2018-11-26T03:05:36.807Z,5.87
2018-11-26T03:08:04.975Z,5.84
2018-11-26T03:10:33.231Z,5.90
2018-11-26T03:13:01.372Z,5.90
2018-11-26T03:15:29.500Z,5.92
2018-11-26T03:17:57.671Z,5.93
2018-11-26T03:20:25.936Z,5.86
2018-11-26T03:22:54.326Z,5.87
2018-11-26T03:25:22.459Z,5.87
2018-11-26T03:27:50.663Z,5.86
2018-11-26T03:30:19.803Z,5.85
2018-11-26T03:32:47.898Z,5.84
2018-11-26T03:35:16.119Z,5.87
2018-11-26T03:37:44.328Z,5.85
2018-11-26T03:40:13.280Z,5.86
2018-11-26T03:42:41.579Z,5.85
2018-11-26T03:45:14.834Z,5.86
2018-11-26T03:47:43.017Z,5.86
2018-11-26T03:50:12.047Z,5.84
2018-11-26T03:52:40.493Z,5.89
2018-11-26T03:55:09.794Z,5.92
2018-11-26T03:57:37.965Z,5.96
2018-11-26T04:00:10.948Z,5.93
2018-11-26T04:02:39.225Z,5.95
2018-11-26T04:05:08.417Z,5.92
2018-11-26T04:07:36.660Z,5.92
2018-11-26T04:10:06.189Z,5.90
2018-11-26T04:12:34.370Z,5.91
2018-11-26T04:15:02.512Z,5.95
2018-11-26T04:17:30.726Z,6.00
2018-11-26T04:19:58.899Z,5.94
2018-11-26T04:22:27.134Z,5.93
2018-11-26T04:24:55.243Z,5.90
2018-11-26T04:27:23.405Z,5.92
2018-11-26T04:29:51.602Z,5.93
2018-11-26T04:32:19.763Z,5.90
2018-11-26T04:34:47.931Z,5.90
2018-11-26T04:37:16.121Z,5.92
2018-11-26T04:39:44.335Z,5.91
2018-11-26T04:42:12.458Z,5.88
2018-11-26T04:44:40.609Z,5.87
2018-11-26T04:47:08.791Z,5.92
2018-11-26T04:49:36.972Z,5.93
2018-11-26T04:52:05.367Z,5.90
2018-11-26T04:54:33.522Z,5.94
2018-11-26T04:57:01.691Z,5.92
2018-11-26T04:59:29.867Z,5.89
2018-11-26T05:01:57.991Z,5.92
2018-11-26T05:04:26.176Z,5.91
2018-11-26T05:06:54.312Z,5.94
2018-11-26T05:09:22.470Z,5.87
2018-11-26T05:11:50.744Z,5.91
2018-11-26T05:14:18.909Z,5.89
2018-11-26T05:16:47.090Z,5.82
2018-11-26T05:19:15.267Z,5.89
2018-11-26T05:21:43.399Z,5.88
2018-11-26T05:24:11.918Z,5.85
2018-11-26T05:26:40.046Z,5.88
2018-11-26T05:29:08.258Z,5.89
2018-11-26T05:31:36.463Z,5.87
2018-11-26T05:34:04.596Z,5.83
2018-11-26T05:36:32.717Z,5.85
2018-11-26T05:39:00.866Z,5.87
2018-11-26T05:41:29.042Z,5.87
2018-11-26T05:43:57.171Z,5.83
2018-11-26T05:46:25.375Z,5.82
2018-11-26T05:48:53.542Z,5.82
2018-11-26T05:51:21.683Z,5.86
2018-11-26T05:53:49.811Z,5.83
2018-11-26T05:56:17.958Z,5.79
2018-11-26T05:58:46.224Z,5.82
2018-11-26T06:01:14.578Z,5.86
2018-11-26T06:03:42.716Z,5.85
2018-11-26T06:06:10.875Z,5.84
2018-11-26T06:08:39.158Z,5.79
2018-11-26T06:11:07.319Z,5.83
2018-11-26T06:13:35.999Z,5.78
2018-11-26T06:16:05.098Z,5.80
2018-11-26T06:18:33.218Z,5.81
2018-11-26T06:21:01.560Z,5.78
2018-11-26T06:23:29.780Z,5.78
2018-11-26T06:25:58.287Z,5.78
2018-11-26T06:28:26.502Z,5.79
2018-11-26T06:30:54.690Z,5.81
2018-11-26T06:33:22.922Z,5.80
2018-11-26T06:35:51.061Z,5.82
2018-11-26T06:38:19.735Z,5.83
2018-11-26T06:40:47.963Z,5.83
2018-11-26T06:43:17.361Z,5.83
2018-11-26T06:45:44.528Z,5.82
2018-11-26T06:48:12.666Z,5.80
2018-11-26T06:50:40.918Z,5.85
2018-11-26T06:53:09.130Z,5.84
2018-11-26T06:55:37.291Z,5.86
2018-11-26T06:58:05.447Z,5.80
2018-11-26T07:00:33.579Z,5.82
2018-11-26T07:03:01.807Z,5.83
2018-11-26T07:05:30.044Z,5.81
2018-11-26T07:07:58.469Z,5.82
2018-11-26T07:10:26.711Z,5.80
2018-11-26T07:12:55.793Z,5.80
2018-11-26T07:15:24.014Z,5.83
2018-11-26T07:17:52.125Z,5.82
2018-11-26T07:20:21.632Z,5.79
2018-11-26T07:22:49.769Z,5.79
2018-11-26T07:25:19.567Z,5.78
2018-11-26T07:27:52.088Z,5.83
2018-11-26T07:30:28.610Z,5.78
2018-11-26T07:32:56.821Z,5.79
2018-11-26T07:35:24.969Z,5.79
2018-11-26T07:37:53.161Z,5.79
2018-11-26T07:40:23.321Z,5.82
2018-11-26T07:42:56.032Z,5.85
2018-11-26T07:45:24.167Z,5.84
2018-11-26T07:47:52.308Z,5.82
2018-11-26T07:50:20.454Z,5.83
2018-11-26T07:52:48.670Z,5.83
2018-11-26T07:55:19.887Z,5.86
2018-11-26T07:57:48.063Z,5.86
2018-11-26T08:00:19.106Z,5.90
2018-11-26T08:02:47.747Z,5.91
2018-11-26T08:05:18.611Z,5.90
2018-11-26T08:07:46.969Z,5.89
2018-11-26T08:10:16.231Z,5.88
2018-11-26T08:12:45.055Z,5.88
2018-11-26T08:15:16.350Z,5.90
2018-11-26T08:17:44.499Z,5.98
2018-11-26T08:20:12.651Z,5.94
2018-11-26T08:22:41.215Z,5.98
2018-11-26T08:25:10.472Z,6.02
2018-11-26T08:27:39.030Z,6.00
2018-11-26T08:30:11.561Z,6.00
2018-11-26T08:32:39.991Z,6.03
2018-11-26T08:35:08.893Z,6.13
2018-11-26T08:37:37.172Z,6.06
2018-11-26T08:40:11.730Z,6.12
2018-11-26T08:42:40.018Z,6.09
2018-11-26T08:45:16.641Z,6.07
2018-11-26T08:47:50.342Z,6.13
2018-11-26T08:50:18.518Z,6.10
2018-11-26T08:52:46.678Z,6.11
2018-11-26T08:55:14.959Z,6.13
2018-11-26T08:57:43.101Z,6.25
2018-11-26T09:00:11.877Z,6.29
2018-11-26T09:02:46.089Z,6.19
2018-11-26T09:05:23.997Z,6.14
2018-11-26T09:07:47.797Z,6.21
2018-11-26T09:10:15.961Z,6.29
2018-11-26T09:12:44.148Z,6.36
2018-11-26T09:15:12.322Z,6.45
2018-11-26T09:17:40.444Z,6.48
2018-11-26T09:20:10.818Z,6.53
2018-11-26T09:22:39.357Z,6.50
2018-11-26T09:25:11.375Z,6.61
2018-11-26T09:27:39.540Z,6.47
2018-11-26T09:30:13.027Z,6.59
2018-11-26T09:32:42.033Z,6.57
2018-11-26T09:35:12.827Z,6.61
2018-11-26T09:37:41.108Z,6.66
2018-11-26T09:40:14.884Z,6.62
2018-11-26T09:42:43.110Z,6.59
2018-11-26T09:45:14.465Z,6.59
2018-11-26T09:47:42.648Z,6.54
2018-11-26T09:50:13.068Z,6.62
2018-11-26T09:52:41.226Z,6.60
2018-11-26T09:55:10.299Z,6.60
2018-11-26T09:57:38.504Z,6.54
2018-11-26T10:00:15.336Z,6.54
2018-11-26T10:02:44.583Z,6.57
2018-11-26T10:05:17.752Z,6.58
2018-11-26T10:07:45.983Z,6.52
2018-11-26T10:10:14.382Z,6.51
2018-11-26T10:12:43.433Z,6.51
2018-11-26T10:15:16.895Z,6.56
2018-11-26T10:17:45.089Z,6.58
2018-11-26T10:20:13.263Z,6.55
2018-11-26T10:22:41.828Z,6.61
2018-11-26T10:25:12.165Z,6.58
2018-11-26T10:27:40.722Z,6.60
2018-11-26T10:30:14.929Z,6.57
2018-11-26T10:32:43.549Z,6.56
2018-11-26T10:35:13.694Z,6.58
2018-11-26T10:37:42.361Z,6.64
2018-11-26T10:40:12.491Z,6.62
2018-11-26T10:42:40.617Z,6.66
2018-11-26T10:45:11.269Z,6.68
2018-11-26T10:47:39.463Z,6.59
2018-11-26T10:50:09.532Z,6.58
2018-11-26T10:52:37.669Z,6.56
2018-11-26T10:55:09.371Z,6.63
2018-11-26T10:57:37.526Z,6.65
2018-11-26T11:00:07.570Z,6.66
2018-11-26T11:02:41.694Z,6.67
2018-11-26T11:05:10.295Z,6.58
2018-11-26T11:07:38.557Z,6.57
2018-11-26T11:10:11.128Z,6.60
2018-11-26T11:12:39.403Z,6.77
2018-11-26T11:15:09.695Z,6.82
2018-11-26T11:17:37.927Z,6.85
2018-11-26T11:20:10.147Z,6.75
2018-11-26T11:22:38.295Z,6.79
2018-11-26T11:25:07.443Z,6.98
2018-11-26T11:27:35.733Z,7.08
2018-11-26T11:30:07.801Z,6.94
2018-11-26T11:32:36.255Z,6.84
2018-11-26T11:35:05.615Z,6.78
2018-11-26T11:37:33.865Z,6.79
2018-11-26T11:40:01.993Z,6.64
2018-11-26T11:42:30.192Z,6.66
2018-11-26T11:44:58.349Z,6.58
2018-11-26T11:47:26.541Z,6.61
2018-11-26T11:49:54.681Z,6.61
2018-11-26T11:52:23.346Z,6.62
2018-11-26T11:54:51.503Z,6.61
2018-11-26T11:57:19.655Z,6.54
2018-11-26T11:59:49.141Z,6.57
2018-11-26T12:02:17.525Z,6.56
2018-11-26T12:04:45.752Z,6.58
2018-11-26T12:07:14.029Z,6.57
2018-11-26T12:09:42.158Z,6.52
2018-11-26T12:12:10.328Z,6.53
2018-11-26T12:14:38.596Z,6.60
2018-11-26T12:17:06.763Z,6.53
2018-11-26T12:19:34.944Z,6.58
2018-11-26T12:22:03.147Z,6.64
2018-11-26T12:24:31.292Z,6.67
2018-11-26T12:26:59.528Z,6.68
2018-11-26T12:29:27.757Z,6.59
2018-11-26T12:31:55.917Z,6.63
2018-11-26T12:34:24.235Z,6.60
2018-11-26T12:36:57.751Z,6.66
2018-11-26T12:39:21.626Z,6.58
2018-11-26T12:41:49.850Z,6.61
2018-11-26T12:44:18.039Z,6.62
2018-11-26T12:46:46.167Z,6.63
2018-11-26T12:49:14.453Z,6.61
2018-11-26T12:51:42.640Z,6.63
2018-11-26T12:54:10.791Z,6.74
2018-11-26T12:56:39.902Z,6.79
2018-11-26T12:59:08.131Z,6.71
2018-11-26T13:01:36.347Z,6.76
2018-11-26T13:04:04.891Z,6.77
2018-11-26T13:06:33.104Z,6.71
2018-11-26T13:09:01.262Z,6.77
2018-11-26T13:11:30.363Z,6.88
2018-11-26T13:13:58.575Z,6.78
2018-11-26T13:16:26.994Z,6.78
2018-11-26T13:18:56.375Z,6.69
2018-11-26T13:21:24.706Z,6.66
2018-11-26T13:23:52.930Z,6.68
2018-11-26T13:26:21.218Z,6.66
2018-11-26T13:28:49.699Z,6.71
2018-11-26T13:31:18.189Z,6.79
2018-11-26T13:33:46.494Z,6.74
2018-11-26T13:36:14.668Z,6.76
2018-11-26T13:38:42.878Z,6.79
2018-11-26T13:41:11.129Z,6.83
2018-11-26T13:43:39.456Z,6.83
2018-11-26T13:46:07.690Z,6.75
2018-11-26T13:48:36.278Z,6.77
2018-11-26T13:51:04.494Z,6.72
2018-11-26T13:53:32.752Z,6.77
2018-11-26T13:56:00.935Z,6.78
2018-11-26T13:58:29.175Z,6.90
2018-11-26T14:00:57.545Z,6.93
2018-11-26T14:03:25.791Z,6.88
2018-11-26T14:05:53.981Z,6.88
2018-11-26T14:08:22.406Z,6.81
2018-11-26T14:10:50.676Z,6.84
2018-11-26T14:13:19.006Z,6.83
2018-11-26T14:15:47.224Z,6.86
2018-11-26T14:18:15.368Z,6.91
2018-11-26T14:20:43.515Z,6.93
2018-11-26T14:23:11.711Z,6.97
2018-11-26T14:25:40.121Z,7.00
2018-11-26T14:28:08.292Z,6.93
2018-11-26T14:30:37.197Z,6.85
2018-11-26T14:33:06.528Z,6.90
2018-11-26T14:35:34.900Z,6.84
2018-11-26T14:38:06.906Z,6.82
2018-11-26T14:40:39.505Z,6.87
2018-11-26T14:43:08.080Z,6.86
2018-11-26T14:45:36.314Z,6.82
2018-11-26T14:48:04.549Z,6.87
2018-11-26T14:50:33.462Z,6.82
2018-11-26T14:53:04.704Z,6.79
2018-11-26T14:55:35.913Z,6.77
2018-11-26T14:58:04.241Z,6.77
2018-11-26T15:00:32.374Z,6.73
2018-11-26T15:03:00.652Z,6.73
2018-11-26T15:05:28.968Z,6.73
2018-11-26T15:07:57.324Z,6.79
2018-11-26T15:10:26.321Z,6.76
2018-11-26T15:12:54.506Z,6.72
2018-11-26T15:15:27.706Z,6.71
2018-11-26T15:17:55.931Z,6.74
2018-11-26T15:20:26.292Z,6.73
2018-11-26T15:22:55.618Z,6.74
2018-11-26T15:25:24.972Z,6.80
2018-11-26T15:27:54.490Z,6.85
2018-11-26T15:30:23.084Z,6.86
2018-11-26T15:32:51.320Z,6.79
2018-11-26T15:35:20.689Z,6.76
2018-11-26T15:37:48.900Z,6.85
2018-11-26T15:40:18.771Z,6.88
2018-11-26T15:42:47.050Z,6.89
2018-11-26T15:45:17.627Z,6.87
2018-11-26T15:47:46.525Z,6.82
2018-11-26T15:50:14.798Z,6.81
2018-11-26T15:52:43.030Z,6.82
2018-11-26T15:55:12.582Z,6.80
2018-11-26T15:57:40.735Z,6.78
2018-11-26T16:00:12.616Z,6.82
2018-11-26T16:02:40.950Z,6.81
2018-11-26T16:05:11.018Z,6.79
2018-11-26T16:07:39.434Z,6.76
2018-11-26T16:10:10.411Z,6.75
2018-11-26T16:12:38.793Z,6.71
2018-11-26T16:15:16.985Z,6.65
2018-11-26T16:17:45.286Z,6.62
2018-11-26T16:20:15.120Z,6.60
2018-11-26T16:22:43.449Z,6.58
2018-11-26T16:25:13.011Z,6.57
2018-11-26T16:27:41.298Z,6.57
2018-11-26T16:30:11.289Z,6.59
2018-11-26T16:32:39.713Z,6.58
2018-11-26T16:35:14.488Z,6.57
2018-11-26T16:37:42.630Z,6.55
2018-11-26T16:40:13.280Z,6.51
2018-11-26T16:42:41.616Z,6.53
2018-11-26T16:45:13.332Z,6.54
2018-11-26T16:47:41.533Z,6.51
2018-11-26T16:50:11.779Z,6.48
2018-11-26T16:52:40.060Z,6.50
2018-11-26T16:55:13.415Z,6.46
2018-11-26T16:57:41.867Z,6.36
2018-11-26T17:00:19.220Z,6.32
2018-11-26T17:02:48.587Z,6.31
2018-11-26T17:05:19.444Z,6.29
2018-11-26T17:07:47.806Z,6.32
2018-11-26T17:10:16.135Z,6.31
2018-11-26T17:12:44.458Z,6.13
2018-11-26T17:15:13.920Z,6.10
2018-11-26T17:17:42.098Z,6.13
2018-11-26T17:20:12.412Z,6.21
2018-11-26T17:22:40.740Z,6.26
2018-11-26T17:25:10.353Z,6.42
2018-11-26T17:27:39.499Z,6.45
2018-11-26T17:30:19.033Z,6.40
2018-11-26T17:32:48.806Z,6.41
2018-11-26T17:35:17.377Z,6.38
2018-11-26T17:37:45.653Z,6.30
2018-11-26T17:40:19.170Z,6.23
2018-11-26T17:42:47.587Z,6.16
2018-11-26T17:45:16.550Z,6.18
2018-11-26T17:47:46.516Z,6.15
2018-11-26T17:50:17.055Z,6.12
2018-11-26T17:52:45.200Z,6.08
2018-11-26T17:55:13.702Z,6.10
2018-11-26T17:57:42.014Z,6.13
2018-11-26T18:00:12.616Z,6.15
2018-11-26T18:02:41.496Z,6.07
2018-11-26T18:05:18.041Z,6.08
2018-11-26T18:07:47.790Z,6.11
2018-11-26T18:10:16.095Z,6.13
2018-11-26T18:12:44.362Z,6.15
2018-11-26T18:15:14.373Z,6.13
2018-11-26T18:17:43.513Z,6.07
2018-11-26T18:20:13.850Z,6.05
2018-11-26T18:22:43.280Z,6.07
2018-11-26T18:25:12.066Z,6.05
2018-11-26T18:27:43.385Z,6.16
2018-11-26T18:30:13.969Z,6.21
2018-11-26T18:32:42.307Z,6.31
2018-11-26T18:35:10.644Z,6.32
2018-11-26T18:37:38.880Z,6.30
2018-11-26T18:40:10.607Z,6.27
2018-11-26T18:42:38.967Z,6.25
2018-11-26T18:45:15.714Z,6.23
2018-11-26T18:47:44.340Z,6.25
2018-11-26T18:50:16.619Z,6.29
2018-11-26T18:52:45.327Z,6.22
2018-11-26T18:55:13.610Z,6.15
2018-11-26T18:57:42.299Z,6.11
2018-11-26T19:00:15.172Z,6.17
2018-11-26T19:02:43.400Z,6.17
2018-11-26T19:05:12.601Z,6.08
2018-11-26T19:07:40.949Z,6.03
2018-11-26T19:10:15.424Z,6.10
2018-11-26T19:12:44.820Z,6.22
2018-11-26T19:15:16.264Z,6.29
2018-11-26T19:17:44.395Z,6.24
2018-11-26T19:20:13.076Z,6.24
2018-11-26T19:22:41.926Z,6.14
2018-11-26T19:25:12.674Z,6.11
2018-11-26T19:27:40.981Z,6.11
2018-11-26T19:30:13.349Z,6.06
2018-11-26T19:32:42.216Z,6.00
2018-11-26T19:35:11.777Z,5.89
2018-11-26T19:37:40.032Z,5.84
2018-11-26T19:40:13.799Z,5.91
2018-11-26T19:42:43.253Z,5.79
2018-11-26T19:45:13.824Z,5.50
2018-11-26T19:47:42.102Z,5.24
2018-11-26T19:50:12.036Z,5.15
2018-11-26T19:52:40.478Z,5.19
2018-11-26T19:55:14.272Z,5.24
2018-11-26T19:57:42.492Z,5.31
2018-11-26T20:00:13.187Z,5.43
2018-11-26T20:02:42.516Z,5.50
2018-11-26T20:05:17.916Z,5.50
2018-11-26T20:07:46.115Z,5.48
2018-11-26T20:10:14.336Z,5.43
2018-11-26T20:12:42.541Z,5.45
2018-11-26T20:15:13.635Z,5.44
2018-11-26T20:17:42.208Z,5.45
2018-11-26T20:20:10.671Z,5.51
2018-11-26T20:22:39.171Z,5.47
2018-11-26T20:25:11.206Z,5.47
2018-11-26T20:27:39.386Z,5.39
2018-11-26T20:30:11.392Z,5.42
2018-11-26T20:32:40.308Z,5.42
2018-11-26T20:35:09.660Z,5.41
2018-11-26T20:37:38.044Z,5.45
2018-11-26T20:40:09.981Z,5.46
2018-11-26T20:42:38.501Z,5.48
2018-11-26T20:45:12.708Z,5.46
2018-11-26T20:47:40.917Z,5.42
2018-11-26T20:50:17.587Z,5.38
2018-11-26T20:52:45.759Z,5.41
2018-11-26T20:55:15.563Z,5.43
2018-11-26T20:57:44.900Z,5.32
2018-11-26T21:00:16.516Z,5.21
2018-11-26T21:02:45.341Z,5.19
2018-11-26T21:05:13.576Z,5.18
2018-11-26T21:07:41.941Z,5.21
2018-11-26T21:10:11.637Z,5.22
2018-11-26T21:12:39.976Z,5.22
2018-11-26T21:15:12.780Z,5.14
2018-11-26T21:17:41.098Z,5.06
2018-11-26T21:20:11.409Z,5.12
2018-11-26T21:22:41.561Z,5.15
2018-11-26T21:25:12.102Z,5.19
2018-11-26T21:27:40.355Z,5.31
2018-11-26T21:30:14.805Z,5.52
2018-11-26T21:32:43.124Z,5.66
2018-11-26T21:35:12.857Z,5.65
2018-11-26T21:37:42.244Z,5.61
2018-11-26T21:40:11.710Z,5.55
2018-11-26T21:42:46.445Z,5.37
2018-11-26T21:45:17.100Z,5.23
2018-11-26T21:47:45.378Z,5.23
2018-11-26T21:50:15.214Z,5.26
2018-11-26T21:52:43.594Z,5.28
2018-11-26T21:55:13.681Z,5.29
2018-11-26T21:57:41.973Z,5.34
2018-11-26T22:00:23.355Z,5.40
2018-11-26T22:02:51.914Z,5.42
2018-11-26T22:05:20.166Z,5.36
2018-11-26T22:07:48.344Z,5.38
2018-11-26T22:10:20.578Z,5.41
2018-11-26T22:12:49.945Z,5.42
2018-11-26T22:15:18.116Z,5.47
2018-11-26T22:17:46.307Z,5.49
2018-11-26T22:20:27.741Z,5.51
2018-11-26T22:22:56.343Z,5.54
2018-11-26T22:25:24.497Z,5.55
2018-11-26T22:27:53.360Z,5.54
2018-11-26T22:30:30.671Z,5.60
2018-11-26T22:32:58.961Z,5.57
2018-11-26T22:35:27.184Z,5.57
2018-11-26T22:37:55.437Z,5.49
2018-11-26T22:40:24.800Z,5.51
2018-11-26T22:42:53.176Z,5.68
2018-11-26T22:45:23.215Z,5.71
2018-11-26T22:47:56.561Z,5.80
2018-11-26T22:50:24.798Z,5.90
2018-11-26T22:52:52.993Z,6.07
2018-11-26T22:55:21.195Z,6.07
2018-11-26T22:57:49.321Z,6.03
2018-11-26T23:00:24.808Z,5.96
2018-11-26T23:02:54.176Z,5.92
2018-11-26T23:05:22.354Z,5.92
2018-11-26T23:07:50.529Z,5.92
2018-11-26T23:10:18.667Z,5.89
2018-11-26T23:12:46.876Z,5.80
2018-11-26T23:15:15.681Z,5.77
2018-11-26T23:17:44.447Z,5.74
2018-11-26T23:20:13.743Z,5.67
2018-11-26T23:22:42.000Z,5.54
2018-11-26T23:25:16.185Z,5.48
2018-11-26T23:27:44.404Z,5.34
2018-11-26T23:30:17.919Z,5.37
2018-11-26T23:32:47.339Z,5.39
2018-11-26T23:35:15.467Z,5.36
2018-11-26T23:37:43.683Z,5.35
2018-11-26T23:40:12.655Z,5.38
2018-11-26T23:42:40.827Z,5.42
2018-11-26T23:45:11.806Z,5.42
2018-11-26T23:47:40.051Z,5.32
2018-11-26T23:50:09.460Z,5.30
2018-11-26T23:52:38.947Z,5.30
2018-11-26T23:55:08.036Z,5.30
2018-11-26T23:57:36.186Z,5.32
